createdAt,value
2019-02-03T00:01:34.768Z,185.77
2019-02-03T00:04:04.900Z,167.63
2019-02-03T00:06:33.663Z,166.63
2019-02-03T00:09:04.205Z,177.00
2019-02-03T00:11:34.732Z,178.33
2019-02-03T00:14:04.015Z,183.33
2019-02-03T00:16:32.986Z,191.20
2019-02-03T00:19:01.774Z,179.27
2019-02-03T00:21:30.997Z,171.70
2019-02-03T00:24:00.019Z,179.43
2019-02-03T00:26:28.841Z,172.53
2019-02-03T00:28:57.882Z,174.43
2019-02-03T00:31:26.811Z,175.73
2019-02-03T00:33:55.627Z,171.40
2019-02-03T00:36:24.522Z,184.73
2019-02-03T00:38:54.031Z,173.40
2019-02-03T00:41:23.022Z,192.37
2019-02-03T00:43:53.232Z,196.40
2019-02-03T00:46:22.033Z,195.90
2019-02-03T00:48:51.129Z,189.37
2019-02-03T00:51:19.957Z,195.37
2019-02-03T00:53:48.754Z,194.37
2019-02-03T00:56:17.634Z,220.03
2019-02-03T00:58:46.500Z,219.97
2019-02-03T01:01:15.325Z,230.67
2019-02-03T01:03:44.107Z,228.77
2019-02-03T01:06:12.996Z,230.13
2019-02-03T01:08:41.863Z,217.67
2019-02-03T01:11:10.775Z,215.73
2019-02-03T01:13:39.571Z,208.83
2019-02-03T01:16:08.557Z,241.03
2019-02-03T01:18:37.274Z,232.13
2019-02-03T01:21:06.090Z,208.50
2019-02-03T01:23:34.878Z,225.47
2019-02-03T01:26:03.818Z,228.87
2019-02-03T01:28:32.720Z,221.80
2019-02-03T01:31:01.988Z,240.13
2019-02-03T01:33:30.857Z,240.43
2019-02-03T01:35:59.641Z,223.43
2019-02-03T01:38:28.556Z,229.07
2019-02-03T01:40:57.321Z,212.80
2019-02-03T01:43:26.067Z,225.03
2019-02-03T01:45:54.953Z,211.40
2019-02-03T01:48:23.842Z,238.73
2019-02-03T01:50:52.639Z,198.90
2019-02-03T01:53:21.455Z,216.97
2019-02-03T01:55:50.184Z,204.10
2019-02-03T01:58:18.992Z,209.57
2019-02-03T02:00:47.852Z,222.93
2019-02-03T02:03:16.736Z,202.40
2019-02-03T02:05:45.603Z,211.20
2019-02-03T02:08:14.419Z,200.50
2019-02-03T02:10:43.251Z,183.13
2019-02-03T02:13:13.303Z,176.67
2019-02-03T02:15:42.131Z,195.60
2019-02-03T02:18:10.945Z,181.70
2019-02-03T02:20:39.665Z,182.77
2019-02-03T02:23:08.596Z,167.13
2019-02-03T02:25:37.411Z,198.63
2019-02-03T02:28:06.559Z,182.10
2019-02-03T02:30:35.523Z,180.60
2019-02-03T02:33:04.432Z,188.40
2019-02-03T02:35:33.314Z,174.80
2019-02-03T02:38:07.095Z,174.63
2019-02-03T02:40:32.692Z,178.10
2019-02-03T02:43:01.482Z,169.43
2019-02-03T02:45:30.222Z,186.33
2019-02-03T02:47:59.011Z,172.20
2019-02-03T02:50:33.200Z,177.30
2019-02-03T02:53:01.985Z,183.57
2019-02-03T02:55:31.291Z,161.10
2019-02-03T02:58:00.194Z,166.20
2019-02-03T03:00:29.003Z,163.40
2019-02-03T03:02:57.980Z,158.63
2019-02-03T03:05:26.913Z,174.67
2019-02-03T03:07:55.867Z,174.77
2019-02-03T03:10:24.863Z,158.47
2019-02-03T03:12:53.648Z,162.10
2019-02-03T03:15:22.509Z,158.50
2019-02-03T03:17:51.397Z,167.30
2019-02-03T03:20:21.242Z,161.57
2019-02-03T03:22:50.631Z,163.33
2019-02-03T03:25:21.399Z,165.03
2019-02-03T03:27:50.353Z,158.07
2019-02-03T03:30:21.298Z,179.87
2019-02-03T03:32:50.255Z,157.10
2019-02-03T03:35:19.389Z,156.90
2019-02-03T03:37:48.288Z,154.83
2019-02-03T03:40:25.172Z,169.30
2019-02-03T03:42:54.130Z,170.80
2019-02-03T03:45:23.150Z,154.73
2019-02-03T03:47:51.979Z,165.23
2019-02-03T03:50:20.907Z,151.07
2019-02-03T03:52:49.880Z,165.30
2019-02-03T03:55:18.810Z,158.87
2019-02-03T03:57:47.700Z,161.90
2019-02-03T04:00:19.013Z,159.67
2019-02-03T04:02:48.300Z,170.50
2019-02-03T04:05:17.231Z,169.43
2019-02-03T04:07:46.175Z,153.50
2019-02-03T04:10:19.955Z,162.67
2019-02-03T04:12:48.903Z,153.20
2019-02-03T04:15:19.370Z,150.83
2019-02-03T04:17:48.556Z,154.33
2019-02-03T04:20:20.071Z,172.53
2019-02-03T04:22:48.962Z,170.27
2019-02-03T04:25:17.919Z,161.03
2019-02-03T04:27:46.893Z,179.37
2019-02-03T04:30:22.047Z,189.50
2019-02-03T04:32:51.014Z,177.17
2019-02-03T04:35:19.841Z,184.33
2019-02-03T04:37:48.691Z,195.17
2019-02-03T04:40:19.352Z,203.57
2019-02-03T04:42:48.591Z,195.30
2019-02-03T04:45:18.140Z,195.37
2019-02-03T04:47:47.118Z,183.60
2019-02-03T04:50:17.686Z,188.47
2019-02-03T04:52:46.613Z,206.97
2019-02-03T04:55:17.666Z,214.00
2019-02-03T04:57:46.629Z,177.83
2019-02-03T05:00:22.963Z,188.60
2019-02-03T05:02:51.906Z,230.13
2019-02-03T05:05:20.803Z,216.47
2019-02-03T05:07:49.668Z,203.33
2019-02-03T05:10:19.250Z,206.03
2019-02-03T05:12:48.051Z,227.00
2019-02-03T05:15:19.374Z,204.23
2019-02-03T05:17:48.321Z,234.40
2019-02-03T05:20:19.760Z,232.00
2019-02-03T05:22:48.779Z,226.10
2019-02-03T05:25:17.723Z,170.73
2019-02-03T05:27:46.505Z,201.63
2019-02-03T05:30:18.151Z,188.87
2019-02-03T05:32:46.977Z,199.30
2019-02-03T05:35:15.792Z,235.67
2019-02-03T05:37:44.610Z,236.17
2019-02-03T05:40:15.684Z,222.77
2019-02-03T05:42:44.912Z,209.03
2019-02-03T05:45:18.827Z,214.53
2019-02-03T05:47:49.996Z,204.93
2019-02-03T05:50:20.409Z,235.50
2019-02-03T05:52:49.463Z,200.13
2019-02-03T05:55:18.802Z,199.20
2019-02-03T05:57:47.839Z,213.93
2019-02-03T06:00:24.891Z,201.73
2019-02-03T06:02:53.692Z,191.67
2019-02-03T06:05:22.549Z,179.10
2019-02-03T06:07:54.355Z,196.83
2019-02-03T06:10:23.330Z,180.60
2019-02-03T06:12:53.134Z,162.70
2019-02-03T06:15:21.971Z,191.90
2019-02-03T06:17:51.032Z,192.07
2019-02-03T06:20:20.021Z,189.50
2019-02-03T06:22:48.907Z,178.27
2019-02-03T06:25:17.878Z,184.87
2019-02-03T06:27:46.862Z,193.70
2019-02-03T06:30:24.766Z,189.17
2019-02-03T06:32:53.615Z,202.20
2019-02-03T06:35:22.486Z,196.63
2019-02-03T06:37:51.457Z,190.30
2019-02-03T06:40:20.956Z,194.10
2019-02-03T06:42:49.792Z,199.97
2019-02-03T06:45:18.610Z,196.37
2019-02-03T06:47:47.477Z,203.97
2019-02-03T06:50:16.238Z,177.27
2019-02-03T06:52:44.987Z,199.73
2019-02-03T06:55:13.906Z,177.30
2019-02-03T06:57:42.828Z,181.83
2019-02-03T07:00:13.581Z,190.00
2019-02-03T07:02:42.494Z,184.73
2019-02-03T07:05:11.530Z,183.30
2019-02-03T07:07:40.400Z,189.47
2019-02-03T07:10:11.442Z,180.93
2019-02-03T07:12:40.228Z,180.70
2019-02-03T07:15:10.299Z,171.03
2019-02-03T07:17:39.292Z,160.47
2019-02-03T07:20:18.617Z,162.53
2019-02-03T07:22:47.526Z,172.10
2019-02-03T07:25:16.374Z,169.33
2019-02-03T07:27:45.286Z,159.90
2019-02-03T07:30:27.390Z,175.27
2019-02-03T07:32:57.283Z,152.50
2019-02-03T07:35:26.216Z,152.00
2019-02-03T07:37:57.711Z,154.67
2019-02-03T07:40:26.690Z,154.40
2019-02-03T07:42:55.524Z,136.70
2019-02-03T07:45:26.286Z,149.77
2019-02-03T07:47:55.153Z,137.23
2019-02-03T07:50:24.169Z,137.50
2019-02-03T07:52:53.205Z,139.97
2019-02-03T07:55:22.124Z,124.70
2019-02-03T07:57:50.874Z,127.20
2019-02-03T08:00:21.236Z,134.23
2019-02-03T08:02:50.097Z,134.53
2019-02-03T08:05:19.063Z,127.07
2019-02-03T08:07:47.891Z,120.87
2019-02-03T08:10:25.357Z,123.10
2019-02-03T08:12:48.833Z,120.53
2019-02-03T08:15:21.168Z,119.60
2019-02-03T08:17:50.056Z,118.40
2019-02-03T08:20:21.192Z,114.83
2019-02-03T08:22:50.031Z,109.13
2019-02-03T08:25:18.961Z,103.53
2019-02-03T08:27:48.088Z,95.50
2019-02-03T08:30:25.606Z,101.67
2019-02-03T08:32:54.431Z,102.27
2019-02-03T08:35:23.294Z,94.97
2019-02-03T08:37:52.110Z,87.17
2019-02-03T08:40:36.527Z,78.10
2019-02-03T08:42:56.202Z,78.07
2019-02-03T08:45:25.318Z,73.53
2019-02-03T08:47:54.500Z,69.27
2019-02-03T08:50:24.568Z,66.97
2019-02-03T08:52:53.441Z,69.97
2019-02-03T08:55:22.481Z,65.00
2019-02-03T08:57:51.338Z,63.27
2019-02-03T09:00:28.683Z,57.17
2019-02-03T09:02:57.608Z,67.67
2019-02-03T09:05:26.601Z,59.33
2019-02-03T09:07:55.457Z,62.63
2019-02-03T09:10:25.837Z,65.47
2019-02-03T09:12:54.631Z,60.37
2019-02-03T09:15:27.942Z,57.50
2019-02-03T09:17:56.881Z,51.10
2019-02-03T09:20:33.882Z,52.60
2019-02-03T09:23:03.127Z,45.77
2019-02-03T09:25:32.028Z,45.23
2019-02-03T09:28:00.955Z,45.43
2019-02-03T09:30:31.750Z,44.10
2019-02-03T09:33:00.601Z,48.53
2019-02-03T09:35:29.401Z,37.83
2019-02-03T09:37:58.360Z,42.10
2019-02-03T09:40:29.491Z,31.53
2019-02-03T09:42:58.352Z,37.83
2019-02-03T09:45:27.616Z,30.83
2019-02-03T09:47:56.466Z,32.30
2019-02-03T09:50:29.681Z,31.93
2019-02-03T09:53:00.372Z,26.27
2019-02-03T09:55:29.482Z,26.43
2019-02-03T09:57:59.528Z,30.93
2019-02-03T10:00:30.469Z,31.23
2019-02-03T10:03:00.091Z,22.03
2019-02-03T10:05:28.973Z,24.30
2019-02-03T10:07:57.715Z,28.50
2019-02-03T10:10:28.768Z,23.03
2019-02-03T10:12:58.020Z,21.93
2019-02-03T10:15:27.070Z,21.10
2019-02-03T10:17:56.014Z,26.90
2019-02-03T10:20:24.973Z,20.33
2019-02-03T10:22:53.849Z,21.47
2019-02-03T10:25:24.874Z,24.23
2019-02-03T10:27:53.822Z,19.23
2019-02-03T10:30:23.951Z,20.03
2019-02-03T10:32:52.982Z,20.50
2019-02-03T10:35:26.255Z,17.47
2019-02-03T10:37:55.207Z,17.93
2019-02-03T10:40:26.799Z,19.77
2019-02-03T10:42:57.477Z,22.33
2019-02-03T10:45:26.412Z,15.90
2019-02-03T10:47:55.373Z,15.63
2019-02-03T10:50:27.082Z,16.40
2019-02-03T10:52:56.125Z,19.97
2019-02-03T10:55:25.076Z,18.93
2019-02-03T10:57:54.241Z,17.23
2019-02-03T11:00:31.658Z,13.90
2019-02-03T11:03:00.634Z,13.73
2019-02-03T11:05:41.167Z,17.83
2019-02-03T11:08:11.251Z,13.27
2019-02-03T11:10:40.299Z,13.90
2019-02-03T11:13:09.204Z,14.73
2019-02-03T11:15:38.101Z,13.97
2019-02-03T11:18:07.029Z,12.20
2019-02-03T11:20:36.146Z,14.43
2019-02-03T11:23:05.222Z,15.60
2019-02-03T11:25:34.165Z,14.60
2019-02-03T11:28:03.782Z,13.10
2019-02-03T11:30:32.793Z,15.73
2019-02-03T11:33:07.871Z,17.30
2019-02-03T11:35:33.584Z,12.27
2019-02-03T11:38:03.359Z,13.57
2019-02-03T11:40:34.535Z,15.47
2019-02-03T11:43:03.862Z,13.73
2019-02-03T11:45:35.500Z,12.57
2019-02-03T11:48:09.908Z,15.77
2019-02-03T11:50:41.332Z,10.57
2019-02-03T11:53:12.721Z,13.70
2019-02-03T11:55:41.601Z,12.70
2019-02-03T11:58:11.258Z,10.80
2019-02-03T12:00:40.181Z,12.93
2019-02-03T12:03:09.164Z,11.57
2019-02-03T12:05:38.193Z,11.27
2019-02-03T12:08:06.940Z,10.07
2019-02-03T12:10:35.365Z,11.30
2019-02-03T12:13:04.326Z,9.70
2019-02-03T12:15:33.138Z,16.93
2019-02-03T12:18:01.587Z,9.33
2019-02-03T12:20:29.946Z,8.80
2019-02-03T12:22:58.593Z,9.33
2019-02-03T12:25:28.074Z,8.37
2019-02-03T12:27:56.563Z,8.43
2019-02-03T12:30:26.275Z,11.03
2019-02-03T12:32:54.669Z,8.50
2019-02-03T12:35:23.009Z,9.93
2019-02-03T12:37:51.515Z,8.30
2019-02-03T12:40:21.116Z,8.43
2019-02-03T12:42:49.511Z,6.53
2019-02-03T12:45:19.059Z,8.03
2019-02-03T12:47:48.748Z,8.77
2019-02-03T12:50:17.300Z,7.07
2019-02-03T12:52:46.373Z,6.53
2019-02-03T12:55:16.178Z,7.57
2019-02-03T12:57:46.680Z,8.63
2019-02-03T13:00:18.632Z,10.10
2019-02-03T13:02:47.022Z,7.20
2019-02-03T13:05:16.501Z,6.80
2019-02-03T13:07:44.906Z,7.03
2019-02-03T13:10:16.696Z,7.90
2019-02-03T13:12:44.724Z,8.40
2019-02-03T13:15:17.330Z,6.63
2019-02-03T13:17:45.671Z,8.03
2019-02-03T13:20:15.570Z,12.07
2019-02-03T13:22:43.909Z,7.10
2019-02-03T13:25:12.664Z,8.57
2019-02-03T13:27:40.933Z,8.47
2019-02-03T13:30:13.791Z,6.20
2019-02-03T13:32:42.070Z,6.73
2019-02-03T13:35:10.623Z,7.93
2019-02-03T13:37:39.337Z,7.10
2019-02-03T13:40:09.122Z,9.23
2019-02-03T13:42:37.858Z,7.33
2019-02-03T13:45:07.795Z,5.20
2019-02-03T13:47:36.191Z,5.03
2019-02-03T13:50:06.108Z,4.73
2019-02-03T13:52:34.384Z,8.23
2019-02-03T13:55:03.649Z,6.50
2019-02-03T13:57:32.010Z,5.57
2019-02-03T14:00:00.386Z,5.00
2019-02-03T14:02:28.798Z,9.33
2019-02-03T14:04:57.541Z,5.10
2019-02-03T14:07:25.819Z,17.17
2019-02-03T14:09:54.191Z,5.93
2019-02-03T14:12:22.576Z,6.40
2019-02-03T14:14:50.931Z,6.00
2019-02-03T14:17:20.199Z,7.70
2019-02-03T14:19:48.755Z,5.50
2019-02-03T14:22:17.049Z,5.43
2019-02-03T14:24:45.327Z,6.70
2019-02-03T14:27:13.722Z,5.97
2019-02-03T14:29:42.066Z,6.90
2019-02-03T14:32:10.468Z,11.33
2019-02-03T14:34:39.269Z,5.33
2019-02-03T14:37:07.650Z,8.90
2019-02-03T14:39:35.988Z,6.63
2019-02-03T14:42:04.552Z,7.83
2019-02-03T14:44:33.011Z,6.00
2019-02-03T14:47:01.308Z,6.27
2019-02-03T14:49:29.923Z,6.30
2019-02-03T14:51:58.317Z,5.10
2019-02-03T14:54:26.678Z,6.13
2019-02-03T14:56:55.061Z,4.90
2019-02-03T14:59:23.348Z,4.43
2019-02-03T15:01:51.773Z,6.27
2019-02-03T15:04:20.078Z,7.77
2019-02-03T15:06:49.001Z,5.43
2019-02-03T15:09:17.450Z,6.47
2019-02-03T15:11:45.809Z,7.03
2019-02-03T15:14:14.270Z,4.80
2019-02-03T15:16:42.622Z,6.83
2019-02-03T15:19:10.940Z,3.87
2019-02-03T15:21:39.373Z,6.40
2019-02-03T15:24:15.908Z,7.03
2019-02-03T15:26:37.815Z,8.90
2019-02-03T15:29:06.212Z,5.97
2019-02-03T15:31:34.570Z,7.47
2019-02-03T15:34:03.424Z,7.00
2019-02-03T15:36:31.776Z,8.57
2019-02-03T15:39:00.164Z,6.43
2019-02-03T15:41:28.540Z,7.33
2019-02-03T15:43:56.809Z,7.93
2019-02-03T15:46:25.631Z,7.07
2019-02-03T15:48:53.911Z,10.57
2019-02-03T15:51:22.313Z,8.60
2019-02-03T15:53:50.949Z,7.80
2019-02-03T15:56:19.328Z,7.93
2019-02-03T15:58:47.691Z,10.07
2019-02-03T16:01:16.812Z,7.83
2019-02-03T16:03:45.603Z,8.83
2019-02-03T16:06:14.367Z,7.77
2019-02-03T16:08:43.087Z,10.03
2019-02-03T16:11:11.903Z,7.23
2019-02-03T16:13:40.636Z,7.77
2019-02-03T16:16:09.834Z,7.60
2019-02-03T16:18:38.567Z,7.70
2019-02-03T16:21:07.330Z,9.10
2019-02-03T16:23:36.058Z,7.40
2019-02-03T16:26:04.929Z,7.13
2019-02-03T16:28:33.767Z,10.77
2019-02-03T16:31:03.148Z,9.83
2019-02-03T16:33:32.791Z,8.13
2019-02-03T16:36:02.204Z,11.60
2019-02-03T16:38:31.466Z,8.80
2019-02-03T16:41:01.025Z,7.50
2019-02-03T16:43:30.577Z,9.10
2019-02-03T16:46:00.123Z,8.10
2019-02-03T16:48:29.583Z,11.20
2019-02-03T16:50:58.922Z,9.70
2019-02-03T16:53:28.566Z,7.70
2019-02-03T16:55:57.923Z,8.00
2019-02-03T16:58:27.540Z,8.03
2019-02-03T17:00:56.826Z,8.23
2019-02-03T17:03:26.214Z,11.40
2019-02-03T17:05:55.793Z,9.10
2019-02-03T17:08:25.260Z,10.07
2019-02-03T17:10:54.641Z,9.67
2019-02-03T17:13:25.174Z,12.40
2019-02-03T17:15:54.597Z,10.53
2019-02-03T17:18:23.956Z,7.13
2019-02-03T17:21:01.441Z,6.93
2019-02-03T17:23:24.124Z,7.97
2019-02-03T17:25:59.220Z,10.63
2019-02-03T17:28:28.684Z,11.20
2019-02-03T17:30:58.093Z,8.20
2019-02-03T17:33:27.572Z,7.57
2019-02-03T17:35:56.897Z,10.70
2019-02-03T17:38:26.278Z,10.60
2019-02-03T17:40:55.582Z,9.57
2019-02-03T17:43:24.953Z,11.70
2019-02-03T17:45:54.292Z,9.57
2019-02-03T17:48:23.644Z,11.60
2019-02-03T17:50:53.087Z,12.90
2019-02-03T17:53:22.406Z,16.83
2019-02-03T17:55:51.985Z,14.20
2019-02-03T17:58:21.409Z,13.63
2019-02-03T18:00:50.978Z,11.13
2019-02-03T18:03:20.181Z,11.33
2019-02-03T18:05:50.183Z,9.30
2019-02-03T18:08:19.865Z,15.13
2019-02-03T18:10:49.300Z,12.50
2019-02-03T18:13:18.563Z,12.63
2019-02-03T18:15:47.997Z,11.97
2019-02-03T18:18:17.686Z,13.03
2019-02-03T18:20:48.351Z,10.87
2019-02-03T18:23:17.772Z,11.63
2019-02-03T18:25:48.195Z,10.73
2019-02-03T18:28:17.629Z,14.63
2019-02-03T18:30:47.112Z,13.77
2019-02-03T18:33:16.445Z,14.30
2019-02-03T18:35:46.077Z,12.60
2019-02-03T18:38:15.514Z,14.23
2019-02-03T18:40:44.934Z,9.30
2019-02-03T18:43:14.340Z,11.57
2019-02-03T18:45:44.134Z,12.07
2019-02-03T18:48:13.791Z,15.00
2019-02-03T18:50:43.469Z,9.83
2019-02-03T18:53:12.921Z,11.20
2019-02-03T18:55:45.408Z,14.10
2019-02-03T18:58:14.851Z,14.90
2019-02-03T19:00:44.310Z,17.07
2019-02-03T19:03:13.959Z,13.27
2019-02-03T19:05:43.595Z,15.97
2019-02-03T19:08:13.351Z,18.57
2019-02-03T19:10:42.802Z,16.05
2019-02-03T19:13:12.335Z,15.53
2019-02-03T19:15:42.109Z,13.57
2019-02-03T19:18:11.593Z,9.80
2019-02-03T19:20:42.297Z,16.10
2019-02-03T19:23:12.858Z,15.60
2019-02-03T19:25:42.781Z,19.27
2019-02-03T19:28:12.160Z,17.10
2019-02-03T19:30:41.525Z,13.73
2019-02-03T19:33:10.991Z,13.23
2019-02-03T19:35:40.425Z,16.20
2019-02-03T19:38:10.415Z,14.20
2019-02-03T19:40:39.794Z,15.83
2019-02-03T19:43:09.496Z,15.10
2019-02-03T19:45:38.858Z,16.70
2019-02-03T19:48:08.339Z,19.93
2019-02-03T19:50:39.557Z,20.87
2019-02-03T19:53:10.443Z,15.73
2019-02-03T19:55:39.843Z,17.93
2019-02-03T19:58:09.262Z,15.17
2019-02-03T20:00:43.757Z,16.03
2019-02-03T20:03:13.187Z,18.87
2019-02-03T20:05:43.426Z,18.97
2019-02-03T20:08:12.943Z,17.30
2019-02-03T20:10:42.467Z,15.13
2019-02-03T20:13:11.739Z,15.70
2019-02-03T20:15:41.253Z,18.23
2019-02-03T20:18:10.781Z,16.23
2019-02-03T20:20:40.760Z,16.83
2019-02-03T20:23:10.549Z,17.00
2019-02-03T20:25:40.522Z,16.53
2019-02-03T20:28:09.963Z,16.17
2019-02-03T20:30:39.605Z,16.47
2019-02-03T20:33:09.005Z,16.03
2019-02-03T20:35:38.691Z,14.57
2019-02-03T20:38:08.139Z,15.17
2019-02-03T20:40:40.649Z,16.00
2019-02-03T20:43:10.085Z,15.17
2019-02-03T20:45:48.838Z,14.97
2019-02-03T20:48:11.206Z,13.57
2019-02-03T20:50:40.917Z,15.13
2019-02-03T20:53:10.440Z,13.53
2019-02-03T20:55:39.883Z,15.57
2019-02-03T20:58:09.200Z,17.10
2019-02-03T21:00:38.691Z,16.73
2019-02-03T21:03:08.174Z,13.40
2019-02-03T21:05:37.498Z,18.03
2019-02-03T21:08:06.922Z,17.57
2019-02-03T21:10:36.337Z,18.07
2019-02-03T21:13:11.215Z,16.00
2019-02-03T21:15:36.812Z,15.80
2019-02-03T21:18:07.953Z,17.30
2019-02-03T21:20:37.438Z,15.47
2019-02-03T21:23:06.823Z,20.03
2019-02-03T21:25:36.232Z,22.70
2019-02-03T21:28:05.762Z,17.47
2019-02-03T21:30:37.054Z,20.50
2019-02-03T21:33:06.765Z,19.33
2019-02-03T21:35:36.032Z,19.07
2019-02-03T21:38:06.071Z,16.83
2019-02-03T21:40:35.522Z,16.47
2019-02-03T21:43:05.413Z,18.07
2019-02-03T21:45:44.435Z,17.43
2019-02-03T21:48:06.494Z,17.77
2019-02-03T21:50:35.949Z,16.00
2019-02-03T21:53:05.419Z,18.77
2019-02-03T21:55:34.759Z,18.37
2019-02-03T21:58:04.554Z,17.63
2019-02-03T22:00:33.975Z,20.67
2019-02-03T22:03:03.361Z,20.90
2019-02-03T22:05:32.855Z,21.70
2019-02-03T22:08:02.478Z,16.63
2019-02-03T22:10:33.784Z,17.03
2019-02-03T22:13:03.901Z,20.83
2019-02-03T22:15:33.260Z,17.57
2019-02-03T22:18:02.639Z,20.30
2019-02-03T22:20:31.926Z,19.40
2019-02-03T22:23:01.332Z,18.10
2019-02-03T22:25:30.642Z,15.97
2019-02-03T22:28:00.007Z,18.23
2019-02-03T22:30:34.547Z,16.57
2019-02-03T22:33:05.231Z,14.93
2019-02-03T22:35:34.600Z,18.20
2019-02-03T22:38:04.857Z,18.77
2019-02-03T22:40:34.167Z,18.20
2019-02-03T22:43:03.571Z,18.83
2019-02-03T22:45:32.959Z,14.93
2019-02-03T22:48:02.154Z,15.17
2019-02-03T22:50:32.824Z,18.27
2019-02-03T22:53:02.372Z,15.23
2019-02-03T22:55:31.900Z,16.00
2019-02-03T22:58:01.224Z,19.63
2019-02-03T23:00:51.450Z,19.13
2019-02-03T23:03:30.646Z,22.43
2019-02-03T23:06:00.093Z,18.33
2019-02-03T23:08:29.454Z,20.43
2019-02-03T23:10:58.694Z,19.87
2019-02-03T23:13:27.921Z,20.47
2019-02-03T23:15:57.373Z,24.17
2019-02-03T23:18:26.726Z,24.80
2019-02-03T23:20:55.990Z,22.80
2019-02-03T23:23:25.358Z,25.73
2019-02-03T23:25:54.707Z,21.87
2019-02-03T23:28:24.449Z,20.70
2019-02-03T23:30:53.798Z,25.63
2019-02-03T23:33:23.124Z,24.23
2019-02-03T23:35:52.519Z,27.37
2019-02-03T23:38:21.749Z,24.53
2019-02-03T23:40:51.206Z,24.20
2019-02-03T23:43:20.645Z,25.47
2019-02-03T23:45:50.235Z,24.67
2019-02-03T23:48:19.539Z,24.67
2019-02-03T23:50:48.836Z,23.10
2019-02-03T23:53:18.075Z,27.87
2019-02-03T23:55:47.433Z,24.10
2019-02-03T23:58:16.667Z,30.13
